Time;durP1;ratioP1;P1;durP2;ratioP2;P2;SDS_P1;SDS_P2;PMS_P1;PMS_P2;Temp;Humidity;BMP_temperature;BMP_pressure;BME280_temperature;BME280_humidity;BME280_pressure;Samples;Min_cycle;Max_cycle;Signal;HPM_P1;HPM_P2
2022/05/10 00:02:03;;;;;;;8.38;3.40;;;13.70;99.90;;;;;;5062818;28;20036;-68
2022/05/10 00:04:29;;;;;;;8.05;3.58;;;13.60;99.90;;;;;;5054894;28;20458;-67
2022/05/10 00:06:55;;;;;;;7.10;3.15;;;13.50;99.90;;;;;;5060987;28;20087;-67
2022/05/10 00:09:27;;;;;;;7.93;3.40;;;13.40;99.90;;;;;;5077514;28;20036;-67
2022/05/10 00:11:54;;;;;;;7.45;4.15;;;13.30;99.90;;;;;;5055259;28;20520;-67
2022/05/10 00:14:20;;;;;;;9.20;3.33;;;13.30;99.90;;;;;;5052615;28;20053;-68
2022/05/10 00:16:46;;;;;;;9.18;4.25;;;13.20;99.90;;;;;;5035072;28;20049;-67
2022/05/10 00:19:15;;;;;;;12.05;4.15;;;13.10;99.90;;;;;;5046497;28;20124;-67
2022/05/10 00:21:41;;;;;;;7.35;3.50;;;13.00;99.90;;;;;;5039233;28;20064;-67
2022/05/10 00:24:07;;;;;;;7.55;4.13;;;12.90;99.90;;;;;;5039470;28;20454;-67
2022/05/10 00:26:33;;;;;;;6.72;3.30;;;12.90;99.90;;;;;;5053024;28;20125;-67
2022/05/10 00:29:00;;;;;;;9.95;3.70;;;12.80;99.90;;;;;;5064474;28;20048;-68
2022/05/10 00:31:26;;;;;;;10.07;4.07;;;12.70;99.90;;;;;;5069727;28;20071;-67
2022/05/10 00:33:52;;;;;;;8.50;3.72;;;12.60;99.90;;;;;;5052061;28;20080;-67
2022/05/10 00:36:21;;;;;;;9.88;4.18;;;12.60;99.90;;;;;;5023538;28;20494;-67
2022/05/10 00:38:47;;;;;;;6.20;3.67;;;12.50;99.90;;;;;;5045557;28;20040;-66
2022/05/10 00:41:28;;;;;;;8.95;3.95;;;12.50;99.90;;;;;;5054680;28;20063;-67
2022/05/10 00:44:03;;;;;;;11.50;3.72;;;12.40;99.90;;;;;;5050958;28;20040;-67
2022/05/10 00:46:36;;;;;;;7.72;3.60;;;12.40;99.90;;;;;;5052605;28;20052;-67
2022/05/10 00:49:10;;;;;;;12.38;4.55;;;12.40;99.90;;;;;;5054087;28;20348;-67
2022/05/10 00:51:57;;;;;;;7.63;4.07;;;12.40;99.90;;;;;;5042917;28;20401;-67
2022/05/10 00:54:46;;;;;;;9.93;4.20;;;12.30;99.90;;;;;;5044403;28;20474;-66
2022/05/10 00:57:17;;;;;;;8.25;4.40;;;12.30;99.90;;;;;;5038149;28;20055;-67
2022/05/10 01:00:08;;;;;;;10.18;4.00;;;12.30;99.90;;;;;;5048562;28;20037;-68
2022/05/10 01:03:02;;;;;;;8.57;4.45;;;12.20;99.90;;;;;;5033961;28;20112;-67
2022/05/10 01:05:36;;;;;;;10.45;4.70;;;12.20;99.90;;;;;;5034404;28;20037;-68
2022/05/10 01:08:11;;;;;;;8.15;4.20;;;12.20;99.90;;;;;;5038222;28;20049;-68
2022/05/10 01:10:47;;;;;;;7.07;4.00;;;12.20;99.90;;;;;;5043613;28;20062;-67
2022/05/10 01:13:42;;;;;;;9.85;4.10;;;12.20;99.90;;;;;;5057114;28;20050;-67
2022/05/10 01:16:07;;;;;;;7.03;3.95;;;12.20;99.90;;;;;;5073172;28;20111;-67
2022/05/10 01:18:34;;;;;;;8.27;4.68;;;12.20;99.90;;;;;;5073407;28;20593;-67
2022/05/10 01:21:25;;;;;;;10.13;4.50;;;12.20;99.90;;;;;;5073367;28;20137;-68
2022/05/10 01:23:56;;;;;;;9.00;5.30;;;12.20;99.90;;;;;;5036762;28;20032;-67
2022/05/10 01:26:47;;;;;;;9.17;5.07;;;12.20;99.90;;;;;;5055971;28;20055;-67
2022/05/10 01:29:34;;;;;;;12.35;5.25;;;12.20;99.90;;;;;;5055682;28;20121;-68
2022/05/10 01:34:53;;;;;;;7.70;4.63;;;12.10;99.90;;;;;;5059618;28;20040;-67
2022/05/10 01:37:24;;;;;;;8.40;5.13;;;12.10;99.90;;;;;;5072120;28;20402;-67
2022/05/10 01:39:57;;;;;;;11.05;4.43;;;12.10;99.90;;;;;;5080197;28;20064;-67
2022/05/10 01:42:30;;;;;;;10.15;4.80;;;12.10;99.90;;;;;;5045277;28;20060;-67
2022/05/10 01:45:06;;;;;;;8.65;4.97;;;12.10;99.90;;;;;;5054004;28;20048;-67
2022/05/10 01:47:43;;;;;;;11.95;5.07;;;12.00;99.90;;;;;;5053096;28;20521;-67
2022/05/10 01:50:19;;;;;;;11.52;5.53;;;12.00;99.90;;;;;;5063573;28;20067;-68
2022/05/10 01:53:01;;;;;;;10.15;5.15;;;12.00;99.90;;;;;;5070612;28;20047;-67
2022/05/10 01:55:34;;;;;;;10.60;5.70;;;12.00;99.90;;;;;;5055832;28;20040;-67
2022/05/10 01:58:24;;;;;;;11.40;5.45;;;12.00;99.90;;;;;;5071936;28;20054;-67
2022/05/10 02:00:58;;;;;;;10.27;5.70;;;12.00;99.90;;;;;;4971686;28;20085;-67
2022/05/10 02:03:25;;;;;;;10.05;5.50;;;12.00;99.90;;;;;;4973051;28;20070;-67
2022/05/10 02:05:59;;;;;;;12.15;5.85;;;12.00;99.90;;;;;;4969754;28;20307;-67
2022/05/10 02:08:55;;;;;;;8.18;5.28;;;12.00;99.90;;;;;;4968941;28;20050;-67
2022/05/10 02:11:21;;;;;;;9.75;5.55;;;12.00;99.90;;;;;;4985777;28;20421;-68
2022/05/10 02:13:56;;;;;;;13.65;5.57;;;12.00;99.90;;;;;;4959543;28;20054;-67
2022/05/10 02:16:30;;;;;;;7.65;4.97;;;12.00;99.90;;;;;;4953283;28;20523;-67
2022/05/10 02:19:05;;;;;;;10.48;5.63;;;12.00;99.90;;;;;;4970587;28;20943;-68
2022/05/10 02:21:42;;;;;;;13.65;5.47;;;12.00;99.90;;;;;;4972672;28;20409;-66
2022/05/10 02:24:16;;;;;;;9.93;5.03;;;12.10;99.90;;;;;;4971785;28;20105;-67
2022/05/10 02:26:48;;;;;;;9.30;5.28;;;12.10;99.90;;;;;;4980997;28;20460;-67
2022/05/10 02:29:31;;;;;;;10.13;5.15;;;12.10;99.90;;;;;;4958383;28;20044;-67
2022/05/10 02:34:53;;;;;;;10.73;5.45;;;12.10;99.90;;;;;;4972291;28;20492;-67
2022/05/10 02:37:19;;;;;;;13.70;6.25;;;12.10;99.90;;;;;;5007267;28;20052;-67
2022/05/10 02:39:45;;;;;;;12.00;6.07;;;12.10;99.90;;;;;;5072588;28;20437;-67
2022/05/10 02:42:14;;;;;;;14.27;6.03;;;12.10;99.90;;;;;;5068963;28;20040;-68
2022/05/10 02:44:41;;;;;;;10.75;6.05;;;12.20;99.90;;;;;;5062906;28;20562;-67
2022/05/10 02:47:08;;;;;;;11.57;5.75;;;12.20;99.90;;;;;;5052089;28;20056;-66
2022/05/10 02:49:35;;;;;;;9.15;6.00;;;12.20;99.90;;;;;;5057284;28;20111;-67
2022/05/10 02:52:01;;;;;;;10.40;5.55;;;12.30;99.90;;;;;;5059794;28;20487;-67
2022/05/10 02:54:27;;;;;;;10.38;6.10;;;12.30;99.90;;;;;;5072369;28;20044;-67
2022/05/10 02:56:53;;;;;;;9.68;5.88;;;12.30;99.90;;;;;;5071416;28;20047;-67
2022/05/10 02:59:27;;;;;;;10.52;6.38;;;12.30;99.90;;;;;;5048793;28;20056;-67
2022/05/10 03:02:16;;;;;;;11.63;6.70;;;12.30;99.90;;;;;;5069111;28;20044;-67
2022/05/10 03:04:49;;;;;;;14.43;6.47;;;12.40;99.90;;;;;;5070624;28;20052;-68
2022/05/10 03:07:15;;;;;;;13.27;6.63;;;12.40;99.90;;;;;;5071853;28;20472;-66
2022/05/10 03:09:40;;;;;;;11.50;6.75;;;12.50;99.90;;;;;;5064605;28;20109;-68
2022/05/10 03:12:07;;;;;;;11.30;6.10;;;12.50;99.90;;;;;;5047024;28;20492;-68
2022/05/10 03:14:34;;;;;;;10.57;6.63;;;12.50;99.90;;;;;;5044791;28;20063;-68
2022/05/10 03:16:59;;;;;;;12.95;6.78;;;12.60;99.90;;;;;;5050476;28;20090;-68
2022/05/10 03:19:25;;;;;;;12.77;7.18;;;12.60;99.90;;;;;;5043983;28;20552;-67
2022/05/10 03:21:51;;;;;;;14.00;7.40;;;12.60;99.90;;;;;;5051186;28;20352;-67
2022/05/10 03:24:16;;;;;;;11.98;7.15;;;12.60;99.90;;;;;;5052110;28;20036;-67
2022/05/10 03:26:50;;;;;;;14.02;7.30;;;12.60;99.90;;;;;;5044547;28;20048;-66
2022/05/10 03:29:17;;;;;;;10.68;6.85;;;12.70;99.90;;;;;;5037955;28;20511;-67
2022/05/10 03:31:43;;;;;;;12.88;6.43;;;12.70;99.90;;;;;;5051975;28;20769;-67
2022/05/10 03:36:53;;;;;;;13.88;7.15;;;12.70;99.90;;;;;;5052765;28;20102;-68
2022/05/10 03:39:19;;;;;;;9.75;6.50;;;12.60;99.90;;;;;;5053229;28;20438;-68
2022/05/10 03:41:44;;;;;;;9.45;6.50;;;12.60;99.90;;;;;;5064900;28;20028;-68
2022/05/10 03:44:10;;;;;;;12.27;7.13;;;12.60;99.90;;;;;;5043651;28;20048;-68
2022/05/10 03:46:36;;;;;;;13.02;6.82;;;12.60;99.90;;;;;;5055221;28;20399;-67
2022/05/10 03:49:03;;;;;;;10.70;6.75;;;12.60;99.90;;;;;;5054413;28;20461;-67
2022/05/10 03:51:29;;;;;;;13.70;7.32;;;12.60;99.90;;;;;;5037899;28;20118;-67
2022/05/10 03:53:55;;;;;;;14.07;7.80;;;12.60;99.90;;;;;;5049212;28;20128;-67
2022/05/10 03:56:20;;;;;;;15.25;8.10;;;12.60;99.90;;;;;;5036220;28;20139;-68
2022/05/10 03:58:46;;;;;;;13.02;7.07;;;12.60;99.90;;;;;;5051646;28;20418;-67
2022/05/10 04:01:12;;;;;;;12.52;7.05;;;12.50;99.90;;;;;;5037722;28;20057;-67
2022/05/10 04:03:37;;;;;;;11.45;7.00;;;12.50;99.90;;;;;;5035510;28;20120;-66
2022/05/10 04:06:04;;;;;;;10.63;6.75;;;12.50;99.90;;;;;;5051625;28;20547;-67
2022/05/10 04:08:30;;;;;;;12.32;7.45;;;12.50;99.90;;;;;;5054829;28;20052;-67
2022/05/10 04:11:01;;;;;;;12.55;7.30;;;12.50;99.90;;;;;;5054651;28;20131;-67
2022/05/10 04:13:27;;;;;;;10.55;7.07;;;12.50;99.90;;;;;;5058248;28;20111;-67
2022/05/10 04:15:53;;;;;;;16.70;8.13;;;12.50;99.90;;;;;;5046470;28;20040;-67
2022/05/10 04:18:19;;;;;;;13.13;7.50;;;12.50;99.90;;;;;;5055071;28;20102;-67
2022/05/10 04:20:44;;;;;;;14.25;7.50;;;12.50;99.90;;;;;;5052870;28;20044;-67
2022/05/10 04:23:10;;;;;;;11.45;7.13;;;12.50;99.90;;;;;;5048070;28;20045;-67
2022/05/10 04:25:36;;;;;;;14.77;7.68;;;12.50;99.90;;;;;;5034577;28;20132;-67
2022/05/10 04:28:04;;;;;;;9.80;7.20;;;12.60;99.90;;;;;;5034683;28;20052;-68
2022/05/10 04:30:30;;;;;;;11.10;7.75;;;12.60;99.90;;;;;;5043476;28;20075;-67
2022/05/10 04:32:55;;;;;;;14.40;8.20;;;12.60;99.90;;;;;;5019876;28;20127;-67
2022/05/10 04:35:21;;;;;;;12.23;7.70;;;12.60;99.90;;;;;;5041534;28;20051;-67
2022/05/10 04:37:47;;;;;;;13.38;7.82;;;12.70;99.90;;;;;;5034685;28;20494;-66
2022/05/10 04:42:56;;;;;;;15.52;8.60;;;12.80;99.90;;;;;;5051279;28;20041;-67
2022/05/10 04:45:22;;;;;;;17.45;8.85;;;12.80;99.90;;;;;;5023175;28;20044;-67
2022/05/10 04:47:48;;;;;;;13.65;8.57;;;12.80;99.90;;;;;;5033633;28;20047;-67
2022/05/10 04:50:14;;;;;;;15.65;8.70;;;12.90;99.90;;;;;;5022936;28;20056;-67
2022/05/10 04:52:40;;;;;;;13.75;8.57;;;12.90;99.90;;;;;;5049145;28;20491;-67
2022/05/10 04:55:08;;;;;;;12.98;8.32;;;13.00;99.90;;;;;;5048713;28;20041;-67
2022/05/10 04:57:38;;;;;;;17.88;9.40;;;13.00;99.90;;;;;;5019122;28;20056;-66
2022/05/10 05:00:06;;;;;;;13.73;8.30;;;13.00;99.90;;;;;;5034968;28;20049;-66
2022/05/10 05:02:32;;;;;;;10.63;8.27;;;13.10;99.90;;;;;;5068031;28;20037;-67
2022/05/10 05:04:57;;;;;;;11.98;8.82;;;13.10;99.90;;;;;;5052761;28;20048;-67
2022/05/10 05:07:23;;;;;;;13.95;9.13;;;13.20;99.90;;;;;;5045138;28;20050;-68
2022/05/10 05:09:49;;;;;;;16.35;8.70;;;13.20;99.90;;;;;;5053315;28;20043;-67
2022/05/10 05:12:15;;;;;;;12.23;8.30;;;13.20;99.90;;;;;;5053700;28;20139;-67
2022/05/10 05:14:41;;;;;;;15.38;8.63;;;13.30;99.90;;;;;;5050201;28;20044;-66
2022/05/10 05:17:07;;;;;;;13.98;8.43;;;13.40;99.90;;;;;;5041402;28;20380;-67
2022/05/10 05:19:32;;;;;;;13.27;8.63;;;13.40;99.90;;;;;;5034522;28;20098;-68
2022/05/10 05:21:58;;;;;;;16.00;9.27;;;13.50;99.90;;;;;;5033665;28;20409;-65
2022/05/10 05:24:24;;;;;;;16.60;9.07;;;13.50;99.90;;;;;;5050743;28;20111;-67
2022/05/10 05:26:52;;;;;;;12.45;9.00;;;13.60;99.90;;;;;;5050243;28;20151;-67
2022/05/10 05:29:18;;;;;;;13.13;8.88;;;13.70;99.90;;;;;;5053488;28;20051;-65
2022/05/10 05:31:44;;;;;;;13.25;8.10;;;13.70;99.90;;;;;;5052973;28;20060;-65
2022/05/10 05:34:10;;;;;;;17.55;9.52;;;13.80;99.90;;;;;;5040567;28;20040;-66
2022/05/10 05:36:36;;;;;;;13.07;8.20;;;13.90;99.90;;;;;;5034928;28;20037;-66
2022/05/10 05:39:02;;;;;;;11.93;8.35;;;14.00;99.90;;;;;;5040674;28;20032;-66
2022/05/10 05:41:27;;;;;;;13.57;8.55;;;14.00;99.90;;;;;;5039614;28;20090;-66
2022/05/10 05:43:53;;;;;;;16.52;9.02;;;14.10;99.90;;;;;;5019072;28;20040;-66
2022/05/10 05:46:19;;;;;;;14.77;7.97;;;14.10;99.90;;;;;;5033162;28;20053;-67
2022/05/10 05:48:44;;;;;;;13.15;8.57;;;14.20;99.90;;;;;;5042869;28;20443;-67
2022/05/10 05:51:10;;;;;;;13.35;8.30;;;14.30;99.90;;;;;;5049920;28;20395;-66
2022/05/10 05:53:36;;;;;;;15.15;9.23;;;14.40;99.90;;;;;;5041014;28;20407;-67
2022/05/10 05:56:03;;;;;;;12.93;8.88;;;14.40;99.90;;;;;;5040823;28;20696;-67
2022/05/10 05:58:30;;;;;;;13.20;8.52;;;14.50;99.90;;;;;;5035690;28;20040;-67
2022/05/10 06:00:55;;;;;;;15.05;8.63;;;14.60;99.90;;;;;;5050413;28;20041;-67
2022/05/10 06:03:21;;;;;;;10.40;8.52;;;14.70;99.90;;;;;;5038025;28;20045;-67
2022/05/10 06:05:49;;;;;;;16.65;9.00;;;14.80;99.90;;;;;;5042076;28;20582;-66
2022/05/10 06:08:16;;;;;;;14.43;9.57;;;14.80;99.90;;;;;;5034892;28;20434;-67
2022/05/10 06:10:42;;;;;;;13.45;9.07;;;14.90;99.90;;;;;;5040526;28;20109;-67
2022/05/10 06:13:09;;;;;;;16.17;9.88;;;15.00;99.90;;;;;;5033115;28;20049;-67
2022/05/10 06:15:36;;;;;;;13.40;8.43;;;15.10;99.90;;;;;;5050211;28;20076;-67
2022/05/10 06:18:04;;;;;;;14.13;8.65;;;15.20;99.90;;;;;;5032895;28;20045;-67
2022/05/10 06:20:30;;;;;;;13.68;9.15;;;15.30;99.90;;;;;;5032657;28;20049;-67
2022/05/10 06:22:56;;;;;;;13.73;8.93;;;15.50;99.90;;;;;;5032951;28;20437;-67
2022/05/10 06:25:23;;;;;;;14.73;9.20;;;15.60;99.90;;;;;;5032836;28;20037;-67
2022/05/10 06:27:51;;;;;;;12.10;8.75;;;15.70;99.90;;;;;;5032999;28;20074;-66
2022/05/10 06:30:19;;;;;;;13.43;8.77;;;15.80;99.90;;;;;;5032664;28;20072;-67
2022/05/10 06:32:46;;;;;;;14.07;8.75;;;15.90;99.90;;;;;;5050556;28;20037;-67
2022/05/10 06:35:12;;;;;;;12.25;8.40;;;16.00;99.90;;;;;;5032765;28;20082;-67
2022/05/10 06:40:22;;;;;;;15.57;8.57;;;16.10;99.90;;;;;;5032439;28;20476;-67
2022/05/10 06:42:47;;;;;;;15.13;8.98;;;16.20;99.90;;;;;;5032455;28;20116;-66
2022/05/10 06:45:17;;;;;;;9.48;7.55;;;16.30;99.90;;;;;;5015900;28;20384;-67
2022/05/10 06:47:46;;;;;;;12.13;7.85;;;16.40;99.90;;;;;;5016079;28;20057;-67
2022/05/10 06:50:16;;;;;;;12.65;8.45;;;16.60;99.90;;;;;;5032431;28;20053;-67
2022/05/10 06:52:42;;;;;;;12.52;8.00;;;16.70;99.90;;;;;;5032864;28;20083;-67
2022/05/10 06:55:09;;;;;;;14.98;8.57;;;16.90;99.90;;;;;;5050430;28;20033;-67
2022/05/10 06:57:34;;;;;;;12.73;8.23;;;17.10;99.90;;;;;;5032456;28;20055;-67
2022/05/10 07:00:00;;;;;;;11.32;7.20;;;17.40;99.90;;;;;;5032611;28;20040;-67
2022/05/10 07:02:26;;;;;;;12.27;7.38;;;17.60;99.90;;;;;;5032246;28;20084;-67
2022/05/10 07:04:53;;;;;;;13.10;7.78;;;17.80;99.90;;;;;;5032182;28;20033;-67
2022/05/10 07:07:19;;;;;;;11.23;7.15;;;18.10;99.90;;;;;;5032576;28;20040;-67
2022/05/10 07:09:44;;;;;;;11.40;7.80;;;18.20;99.90;;;;;;5033307;28;20064;-67
2022/05/10 07:12:11;;;;;;;14.40;7.82;;;18.30;99.90;;;;;;5036167;28;20048;-67
2022/05/10 07:14:36;;;;;;;14.75;7.50;;;18.50;99.90;;;;;;5036162;28;20052;-66
2022/05/10 07:17:03;;;;;;;13.45;7.50;;;18.50;99.90;;;;;;5036563;28;20146;-67
2022/05/10 07:19:28;;;;;;;20.50;8.20;;;18.60;99.90;;;;;;5036268;28;20052;-66
2022/05/10 07:21:54;;;;;;;11.55;8.00;;;18.70;99.90;;;;;;5036139;28;20037;-66
2022/05/10 07:24:19;;;;;;;12.25;8.30;;;18.80;99.90;;;;;;5036308;28;20041;-67
2022/05/10 07:26:48;;;;;;;11.25;7.38;;;18.80;99.90;;;;;;5036015;28;20055;-67
2022/05/10 07:29:16;;;;;;;12.70;7.72;;;19.00;99.90;;;;;;5035971;28;20059;-66
2022/05/10 07:31:42;;;;;;;10.68;7.43;;;19.20;99.90;;;;;;5035886;28;20041;-67
2022/05/10 07:34:08;;;;;;;12.57;7.70;;;19.30;99.90;;;;;;5036133;28;20033;-67
2022/05/10 07:36:35;;;;;;;12.13;7.63;;;19.30;99.90;;;;;;5035729;28;20049;-66
2022/05/10 07:39:06;;;;;;;12.18;7.60;;;19.50;99.90;;;;;;5036061;28;20485;-67
2022/05/10 07:41:33;;;;;;;12.50;7.97;;;19.60;99.90;;;;;;5035708;28;20048;-67
2022/05/10 07:43:59;;;;;;;13.90;7.82;;;19.80;99.90;;;;;;5035683;28;20118;-67
2022/05/10 07:46:26;;;;;;;16.27;8.18;;;20.00;99.90;;;;;;5036093;28;20052;-67
2022/05/10 07:48:52;;;;;;;13.68;8.35;;;20.10;99.90;;;;;;5019163;28;20040;-67
2022/05/10 07:51:19;;;;;;;15.63;8.10;;;20.40;99.90;;;;;;5035867;28;20381;-67
2022/05/10 07:53:45;;;;;;;11.70;7.35;;;20.60;99.80;;;;;;5035397;28;20075;-67
2022/05/10 07:56:11;;;;;;;13.30;7.63;;;20.70;99.60;;;;;;5035455;28;20053;-67
2022/05/10 07:58:36;;;;;;;11.68;7.15;;;20.90;99.60;;;;;;5035320;28;20041;-67
2022/05/10 08:01:04;;;;;;;9.88;6.45;;;20.90;99.20;;;;;;5018863;28;20493;-67
2022/05/10 08:03:30;;;;;;;15.55;6.15;;;20.90;99.40;;;;;;5035508;28;20137;-67
2022/05/10 08:05:57;;;;;;;11.25;6.43;;;20.90;98.70;;;;;;5053106;28;20460;-67
2022/05/10 08:08:23;;;;;;;9.95;5.50;;;20.90;97.50;;;;;;5035469;28;20124;-67
2022/05/10 08:10:51;;;;;;;12.52;5.80;;;20.90;98.00;;;;;;5039971;28;20123;-67
2022/05/10 08:13:23;;;;;;;10.93;4.78;;;20.80;97.40;;;;;;5055052;28;20041;-67
2022/05/10 08:15:50;;;;;;;8.40;5.18;;;20.70;97.60;;;;;;5054815;28;20119;-67
2022/05/10 08:18:18;;;;;;;14.85;5.47;;;20.60;98.00;;;;;;5055241;28;20479;-66
2022/05/10 08:20:46;;;;;;;9.95;5.57;;;20.50;97.20;;;;;;5054227;28;20109;-67
2022/05/10 08:23:17;;;;;;;8.48;4.80;;;20.40;96.90;;;;;;5054426;28;20044;-67
2022/05/10 08:25:42;;;;;;;7.95;4.75;;;20.40;97.30;;;;;;5054651;28;20048;-67
2022/05/10 08:28:13;;;;;;;8.85;5.53;;;20.30;97.50;;;;;;5053465;28;20063;-67
2022/05/10 08:30:44;;;;;;;8.45;5.18;;;20.30;97.60;;;;;;5053105;28;20045;-67
2022/05/10 08:33:10;;;;;;;12.50;5.75;;;20.20;97.40;;;;;;5037056;28;20036;-67
2022/05/10 08:35:37;;;;;;;9.27;5.95;;;20.20;97.30;;;;;;5052964;28;20040;-67
2022/05/10 08:38:03;;;;;;;9.45;5.82;;;20.10;97.30;;;;;;5065214;28;20040;-68
2022/05/10 08:40:40;;;;;;;12.02;5.63;;;20.20;97.50;;;;;;5092816;28;20150;-67
2022/05/10 08:43:15;;;;;;;11.20;5.28;;;20.20;97.60;;;;;;5074503;28;20121;-67
2022/05/10 08:45:45;;;;;;;8.40;5.57;;;20.10;97.70;;;;;;5074905;28;20055;-67
2022/05/10 08:48:11;;;;;;;9.98;5.57;;;20.20;97.70;;;;;;5056889;28;20060;-67
2022/05/10 08:50:39;;;;;;;10.40;5.65;;;20.20;98.00;;;;;;5074437;28;20048;-67
2022/05/10 08:53:11;;;;;;;10.30;5.82;;;20.20;98.10;;;;;;5074189;28;20046;-68
2022/05/10 08:55:42;;;;;;;8.77;5.43;;;20.20;98.10;;;;;;5074408;28;20038;-67
2022/05/10 08:58:17;;;;;;;9.45;5.88;;;20.30;98.10;;;;;;5074385;28;20048;-67
2022/05/10 09:00:49;;;;;;;11.60;6.68;;;20.30;98.30;;;;;;5074261;28;20118;-67
2022/05/10 09:03:21;;;;;;;;;;;20.30;98.00;;;;;;5074537;28;20036;-67
2022/05/10 09:05:48;;;;;;;8.53;5.63;;;20.30;97.90;;;;;;5074023;28;20282;-67
2022/05/10 09:08:34;;;;;;;8.50;5.80;;;20.30;97.80;;;;;;5074225;28;20421;-67
2022/05/10 09:11:12;;;;;;;11.20;6.55;;;20.40;98.00;;;;;;5067275;28;20052;-67
2022/05/10 09:13:38;;;;;;;7.28;5.30;;;20.40;98.10;;;;;;5054057;28;20044;-67
2022/05/10 09:16:07;;;;;;;9.57;6.00;;;20.50;98.30;;;;;;5053735;28;20565;-67
2022/05/10 09:18:45;;;;;;;8.80;5.70;;;20.50;98.30;;;;;;5053754;28;20079;-67
2022/05/10 09:21:27;;;;;;;9.23;5.43;;;20.60;98.30;;;;;;5053880;28;20499;-67
2022/05/10 09:24:11;;;;;;;10.18;5.63;;;20.70;98.20;;;;;;5036771;28;20056;-67
2022/05/10 09:26:42;;;;;;;10.38;6.00;;;20.80;98.00;;;;;;5053615;28;20049;-68
2022/05/10 09:29:46;;;;;;;9.02;5.53;;;21.10;98.20;;;;;;5053635;28;20052;-67
2022/05/10 09:35:00;;;;;;;7.97;6.25;;;21.40;97.70;;;;;;5053421;28;20044;-67
2022/05/10 09:37:25;;;;;;;13.55;6.75;;;21.60;97.40;;;;;;5071792;28;20029;-68
2022/05/10 09:39:57;;;;;;;12.63;7.15;;;21.90;97.00;;;;;;5053413;28;20048;-68
2022/05/10 09:42:39;;;;;;;9.13;6.72;;;22.10;96.70;;;;;;5053302;28;20056;-67
2022/05/10 09:45:05;;;;;;;14.57;6.70;;;22.10;96.20;;;;;;5053510;28;20044;-67
2022/05/10 09:47:32;;;;;;;11.63;6.07;;;22.00;96.10;;;;;;5053257;28;20041;-68
2022/05/10 09:50:33;;;;;;;8.63;6.25;;;22.00;96.40;;;;;;5053167;28;20039;-67
2022/05/10 09:53:17;;;;;;;8.80;6.55;;;22.00;96.90;;;;;;4954163;28;20081;-67
2022/05/10 09:56:02;;;;;;;170.40;21.52;;;22.00;96.20;;;;;;4953920;28;20043;-67
2022/05/10 09:58:40;;;;;;;10.38;6.43;;;22.20;97.00;;;;;;4954580;28;20046;-67
2022/05/10 10:01:10;;;;;;;12.52;7.28;;;22.20;96.70;;;;;;4953812;28;20043;-67
2022/05/10 10:03:41;;;;;;;9.30;7.07;;;22.30;96.60;;;;;;4952455;28;20055;-67
2022/05/10 10:06:18;;;;;;;12.60;7.13;;;22.30;96.40;;;;;;4953496;28;20042;-66
2022/05/10 10:08:49;;;;;;;13.85;8.02;;;22.30;96.70;;;;;;4953705;28;20054;-67
2022/05/10 10:11:26;;;;;;;14.82;6.72;;;22.30;96.40;;;;;;4961653;28;20070;-67
2022/05/10 10:13:56;;;;;;;11.75;7.05;;;22.40;96.80;;;;;;4973273;28;20110;-67
2022/05/10 10:16:50;;;;;;;13.27;7.55;;;22.30;96.50;;;;;;4973080;28;20428;-68
2022/05/10 10:19:18;;;;;;;10.30;7.43;;;22.30;96.50;;;;;;4986421;28;20533;-67
2022/05/10 10:22:01;;;;;;;10.00;7.15;;;22.50;96.50;;;;;;4956863;28;20054;-68
2022/05/10 10:24:36;;;;;;;10.73;6.40;;;22.50;96.30;;;;;;4973007;28;20429;-68
2022/05/10 10:27:11;;;;;;;9.05;5.40;;;22.60;96.60;;;;;;4989280;28;20050;-67
2022/05/10 10:29:53;;;;;;;7.68;5.43;;;22.60;96.40;;;;;;5067103;28;20059;-67
2022/05/10 10:32:49;;;;;;;8.00;5.20;;;22.70;96.30;;;;;;5055944;28;20044;-67
2022/05/10 10:35:41;;;;;;;15.10;5.90;;;22.70;96.00;;;;;;5054910;28;20051;-68
2022/05/10 10:38:57;;;;;;;9.23;5.47;;;22.60;95.60;;;;;;4956521;28;20046;-68
2022/05/10 10:42:07;;;;;;;10.40;5.55;;;22.60;95.70;;;;;;4948921;29;20486;-68
2022/05/10 10:44:37;;;;;;;6.03;5.15;;;22.60;95.40;;;;;;4858267;29;20094;-68
2022/05/10 10:47:22;;;;;;;8.60;4.85;;;22.60;95.80;;;;;;4859360;29;20159;-68
2022/05/10 10:50:03;;;;;;;7.53;6.53;;;22.60;96.00;;;;;;4859053;29;20057;-67
2022/05/10 10:52:29;;;;;;;6.47;5.47;;;22.50;95.80;;;;;;4874611;29;20033;-67
2022/05/10 10:54:55;;;;;;;8.50;5.70;;;22.50;96.20;;;;;;4858907;29;20132;-67
2022/05/10 10:57:32;;;;;;;8.02;5.10;;;22.40;96.20;;;;;;4874433;29;20156;-67
2022/05/10 11:00:17;;;;;;;7.25;5.35;;;22.40;96.30;;;;;;4843952;29;20396;-68
2022/05/10 11:03:06;;;;;;;7.75;5.18;;;22.40;96.60;;;;;;4859113;29;20069;-68
2022/05/10 11:05:47;;;;;;;10.25;4.47;;;22.50;95.80;;;;;;4859280;29;20489;-68
2022/05/10 11:08:28;;;;;;;19.38;5.15;;;22.40;94.00;;;;;;4859151;29;21032;-67
2022/05/10 11:11:15;;;;;;;10.60;4.72;;;22.30;94.10;;;;;;4860690;29;20493;-68
2022/05/10 11:13:55;;;;;;;11.70;4.47;;;22.20;94.10;;;;;;4874465;29;20515;-68
2022/05/10 11:16:48;;;;;;;9.95;4.65;;;22.20;94.40;;;;;;4923571;28;20407;-67
2022/05/10 11:19:44;;;;;;;5.93;4.57;;;22.20;94.90;;;;;;4949360;28;20034;-67
2022/05/10 11:22:28;;;;;;;8.40;4.18;;;22.30;94.00;;;;;;5040849;28;20127;-68
2022/05/10 11:25:32;;;;;;;9.20;4.50;;;22.40;94.00;;;;;;5052365;28;20039;-68
2022/05/10 11:28:07;;;;;;;6.93;4.60;;;22.60;94.30;;;;;;5035561;28;20044;-68
2022/05/10 11:31:03;;;;;;;14.23;4.50;;;22.80;94.50;;;;;;5052127;28;20048;-68
2022/05/10 11:33:58;;;;;;;8.43;4.72;;;22.80;94.10;;;;;;5051918;28;20040;-67
2022/05/10 11:36:40;;;;;;;11.00;5.13;;;22.90;94.20;;;;;;5034846;28;20079;-68
2022/05/10 11:39:31;;;;;;;7.13;4.18;;;23.00;93.80;;;;;;5052115;28;20032;-68
2022/05/10 11:42:32;;;;;;;6.30;3.83;;;23.10;93.90;;;;;;5051869;28;20040;-68
2022/05/10 11:45:06;;;;;;;13.80;4.80;;;23.30;94.50;;;;;;5051855;28;20037;-68
2022/05/10 11:48:06;;;;;;;9.60;4.05;;;23.50;94.00;;;;;;5052098;28;20093;-68
2022/05/10 11:50:37;;;;;;;7.88;3.90;;;23.60;93.20;;;;;;5051651;28;20480;-68
2022/05/10 11:53:18;;;;;;;10.02;4.38;;;23.60;93.10;;;;;;5035604;28;20033;-68
2022/05/10 11:55:59;;;;;;;18.95;4.78;;;23.40;93.00;;;;;;5052650;28;20102;-68
2022/05/10 11:58:31;;;;;;;9.48;3.85;;;23.20;92.90;;;;;;5055386;28;20035;-67
2022/05/10 12:00:57;;;;;;;;;;;23.10;93.40;;;;;;5055730;28;20114;-67
2022/05/10 12:03:53;;;;;;;9.27;4.10;;;23.00;93.50;;;;;;5051046;28;19917;-67
2022/05/10 12:06:25;;;;;;;15.10;4.50;;;23.00;93.80;;;;;;4956085;28;20417;-67
2022/05/10 12:08:52;;;;;;;9.45;4.55;;;23.10;94.10;;;;;;4955834;28;20043;-67
2022/05/10 12:11:32;;;;;;;8.05;4.57;;;23.00;93.20;;;;;;4953880;28;20402;-67
2022/05/10 12:22:54;;;;;;;10.43;4.03;;;22.90;92.50;;;;;;4955672;28;20042;-67
2022/05/10 12:25:41;;;;;;;8.23;3.35;;;22.90;92.70;;;;;;4956052;28;20091;-67
2022/05/10 12:28:07;;;;;;;6.97;3.35;;;22.80;92.80;;;;;;4955673;28;20098;-67
2022/05/10 12:30:34;;;;;;;9.00;3.90;;;22.80;92.80;;;;;;4955503;28;20046;-67
2022/05/10 12:33:32;;;;;;;5.95;3.60;;;22.70;92.60;;;;;;4955593;28;20054;-68
2022/05/10 12:36:07;;;;;;;5.30;3.80;;;22.70;92.60;;;;;;4971425;28;20109;-67
2022/05/10 12:38:43;;;;;;;11.32;3.25;;;22.80;93.20;;;;;;4955517;28;20046;-67
2022/05/10 12:41:35;;;;;;;6.93;3.35;;;23.00;93.50;;;;;;4955689;28;20039;-67
2022/05/10 12:44:38;;;;;;;8.35;3.55;;;23.20;93.40;;;;;;5054491;28;20037;-67
2022/05/10 12:47:11;;;;;;;;;;;23.10;92.50;;;;;;5055196;28;20076;-67
2022/05/10 12:50:02;;;;;;;12.15;4.10;;;22.90;92.90;;;;;;5054371;28;19931;-67
2022/05/10 12:52:39;;;;;;;8.23;3.15;;;22.90;93.30;;;;;;5037516;28;20136;-67
2022/05/10 12:55:16;;;;;;;7.05;3.00;;;22.90;93.60;;;;;;5054215;28;20391;-67
2022/05/10 12:57:52;;;;;;;9.40;3.80;;;22.70;93.30;;;;;;5054654;28;20532;-67
2022/05/10 13:00:26;;;;;;;12.10;3.80;;;22.60;93.00;;;;;;5036982;28;20169;-67
2022/05/10 13:03:06;;;;;;;9.10;4.40;;;22.50;92.90;;;;;;5054409;28;20491;-68
2022/05/10 13:05:58;;;;;;;7.18;3.03;;;22.40;93.20;;;;;;5054291;28;20102;-67
2022/05/10 13:08:42;;;;;;;8.38;3.00;;;22.20;93.30;;;;;;5040239;28;20106;-68
2022/05/10 13:11:09;;;;;;;11.55;3.50;;;22.20;93.80;;;;;;5041483;28;20049;-67
2022/05/10 13:13:37;;;;;;;7.90;3.40;;;22.00;93.30;;;;;;5054256;28;20577;-67
2022/05/10 13:16:04;;;;;;;14.48;3.67;;;22.00;94.10;;;;;;5037041;28;20086;-67
2022/05/10 13:18:30;;;;;;;6.72;3.33;;;22.00;94.20;;;;;;5054141;28;20043;-68
2022/05/10 13:20:58;;;;;;;9.85;3.33;;;21.90;93.90;;;;;;5053783;28;20083;-67
2022/05/10 13:23:29;;;;;;;7.90;3.10;;;21.90;94.40;;;;;;5053701;28;20123;-68
2022/05/10 13:26:07;;;;;;;9.15;2.97;;;21.90;94.40;;;;;;5036834;28;20056;-67
2022/05/10 13:28:33;;;;;;;11.40;2.40;;;21.80;94.30;;;;;;5054038;28;20444;-67
2022/05/10 13:31:16;;;;;;;7.85;2.90;;;21.80;94.20;;;;;;5053538;28;20040;-67
2022/05/10 13:33:42;;;;;;;7.32;2.63;;;21.70;94.10;;;;;;5036888;28;20060;-68